Tuscola, Michigan
Current Conditions -  °F | °C
As of 11:55 AM on Saturday 22 Nov 2014 (Local Time) from KHYX Reporting Station
Haze Haze  
Wind Chill: 27°   Ceiling: 700
Heat Index: 37°   Visibility: 5mi
Dew Point: 37°   Wind: 18mph
Humidity: 100%   Direction: 220°SW
Pressure: 29.95"   Gusts: 22mph
Location:  43.33°N, 83.66°W
Report Text: KHYX 221655Z AUTO 22016G19KT 5SM BR OVC007 03/03 A2995 RMK AO2
Loading
Personal Weather Stations






























Interactive Weather Map New forecast layout! Learn more

10-Day Weather Forecast

Advertisements
Track Severe Weather on mobile